Terminal Aerodrome Forecast
Issued by NWS

Home | Current Version | Previous Version | Graphics & Text | Print | Product List | Glossary On
Versions: 1 2 3 4 5 6 7 8 9 10 11 12 13 14 15 16 17 18 19 20 21 22 23
000
FTUS43 KBIS 281835 AAA
TAFDIK
TAF AMD
KDIK 281835Z 2819/2918 20005KT P6SM VCTS BKN070CB
      TEMPO 2819/2822 VRB15G25KT 4SM TSRA BKN040CB
     FM290000 30007KT P6SM BKN060
     FM290300 28006KT P6SM FEW250=

USA.gov is the U.S. government's official web portal to all federal, state and local government web resources and services.